Au Gres, Michigan
Current Conditions -  °F | °C
As of 9:53 PM on Sunday 21 Dec 2014 (Local Time) from KOSC Reporting Station
Overcast Overcast  
Wind Chill: 26°   Ceiling: 4800
Heat Index: 32°   Visibility: 7mi
Dew Point: 27°   Wind: 6mph
Humidity: 83%   Direction: 170°S
Pressure: 30.18"   Gusts: NA
Location:  44.05°N, 83.7°W
Report Text: KOSC 220253Z AUTO 17005KT 7SM OVC048 00/M02 A3018 RMK AO2 T00001026
Loading
Personal Weather Stations






























Interactive Weather Map New forecast layout! Learn more

10-Day Weather Forecast

Advertisements
Track Severe Weather on mobile